Time;durP1;ratioP1;P1;durP2;ratioP2;P2;SDS_P1;SDS_P2;PMS_P1;PMS_P2;Temp;Humidity;BMP_temperature;BMP_pressure;BME280_temperature;BME280_humidity;BME280_pressure;Samples;Min_cycle;Max_cycle;Signal;HPM_P1;HPM_P2
2023/07/10 07:15:04;;;;;;;5.75;3.20;;;;;;;;;;13066261;22;20007;-82
2023/07/10 07:20:06;;;;;;;5.85;2.78;;;;;;;;;;13064579;22;20327;-81
2023/07/10 07:25:09;;;;;;;3.80;2.83;;;;;;;;;;13037418;22;20423;-85
2023/07/10 07:30:33;;;;;;;3.90;3.45;;;;;;;;;;13032613;22;20003;-86
2023/07/10 07:35:59;;;;;;;5.43;3.85;;;;;;;;;;13033808;22;19996;-86
2023/07/10 07:41:06;;;;;;;6.60;3.40;;;;;;;;;;13048391;22;20086;-86
2023/07/10 07:46:19;;;;;;;5.80;4.47;;;;;;;;;;13050684;22;20006;-86
2023/07/10 07:51:55;;;;;;;6.53;5.35;;;;;;;;;;13048682;22;20007;-86
2023/07/10 08:02:55;;;;;;;4.55;3.78;;;;;;;;;;13078791;22;20014;-87
2023/07/10 08:08:23;;;;;;;5.00;4.07;;;;;;;;;;13050696;22;20007;-86
2023/07/10 08:13:25;;;;;;;6.13;5.00;;;;;;;;;;13051434;22;20053;-86
2023/07/10 08:18:32;;;;;;;5.68;4.68;;;;;;;;;;13044386;22;20086;-86
2023/07/10 08:23:43;;;;;;;8.38;5.55;;;;;;;;;;13046026;22;20411;-86
2023/07/10 08:28:55;;;;;;;7.15;4.97;;;;;;;;;;13045635;22;20014;-86
2023/07/10 08:34:16;;;;;;;5.22;4.25;;;;;;;;;;13041570;22;20011;-88
2023/07/10 08:39:17;;;;;;;6.72;5.47;;;;;;;;;;13032156;22;20053;-87
2023/07/10 08:44:18;;;;;;;4.90;3.35;;;;;;;;;;13033544;22;20010;-86
2023/07/10 08:49:37;;;;;;;8.45;5.13;;;;;;;;;;13036577;22;20014;-87
2023/07/10 08:54:38;;;;;;;6.35;4.68;;;;;;;;;;13057980;22;20010;-85
2023/07/10 08:59:52;;;;;;;4.60;3.33;;;;;;;;;;13091266;22;20339;-87
2023/07/10 09:04:55;;;;;;;4.13;2.55;;;;;;;;;;13039088;22;20073;-85
2023/07/10 09:09:59;;;;;;;4.72;3.28;;;;;;;;;;13043021;22;20044;-85
2023/07/10 09:15:06;;;;;;;5.25;3.60;;;;;;;;;;13038559;22;20014;-86
2023/07/10 09:20:10;;;;;;;4.40;2.53;;;;;;;;;;13036026;22;20104;-85
2023/07/10 09:25:12;;;;;;;6.10;3.50;;;;;;;;;;13035144;22;20007;-85
2023/07/10 09:30:39;;;;;;;4.53;3.80;;;;;;;;;;13056134;22;20335;-86
2023/07/10 09:35:44;;;;;;;5.63;3.33;;;;;;;;;;13049738;22;20018;-85
2023/07/10 09:40:47;;;;;;;4.72;2.85;;;;;;;;;;13032603;22;20004;-84
2023/07/10 09:45:58;;;;;;;3.70;1.88;;;;;;;;;;13041372;22;20010;-84
2023/07/10 09:51:01;;;;;;;5.22;2.50;;;;;;;;;;13034598;22;20144;-84
2023/07/10 09:56:06;;;;;;;3.95;2.33;;;;;;;;;;13039317;22;20018;-85
2023/07/10 10:01:07;;;;;;;4.05;2.00;;;;;;;;;;13043445;22;19999;-85
2023/07/10 10:06:19;;;;;;;4.28;2.50;;;;;;;;;;13049115;22;20067;-85
2023/07/10 10:11:29;;;;;;;5.15;2.08;;;;;;;;;;13044487;22;20007;-85
2023/07/10 10:16:30;;;;;;;4.15;2.20;;;;;;;;;;13036424;22;20014;-85
2023/07/10 10:21:33;;;;;;;3.47;1.85;;;;;;;;;;13060977;22;20426;-84
2023/07/10 10:26:41;;;;;;;2.88;1.90;;;;;;;;;;13060609;22;20014;-84
2023/07/10 10:31:48;;;;;;;5.25;2.47;;;;;;;;;;13062919;22;20003;-83
2023/07/10 10:37:00;;;;;;;3.13;1.90;;;;;;;;;;13060743;22;20003;-84
2023/07/10 10:42:04;;;;;;;4.60;2.88;;;;;;;;;;13058743;22;20031;-86
2023/07/10 10:47:11;;;;;;;3.78;2.30;;;;;;;;;;13072395;22;20104;-85
2023/07/10 10:52:15;;;;;;;3.28;2.22;;;;;;;;;;13078533;22;20000;-84
2023/07/10 10:57:35;;;;;;;3.25;1.60;;;;;;;;;;13081011;22;20015;-85
2023/07/10 11:02:48;;;;;;;5.05;2.20;;;;;;;;;;13078395;22;20086;-85
2023/07/10 11:07:54;;;;;;;4.13;1.90;;;;;;;;;;13065796;22;20041;-84
2023/07/10 11:12:56;;;;;;;4.88;2.60;;;;;;;;;;13070456;22;19999;-83
2023/07/10 11:17:57;;;;;;;4.97;2.17;;;;;;;;;;13065858;22;20003;-85
2023/07/10 11:23:02;;;;;;;4.30;2.58;;;;;;;;;;13069417;22;20124;-83
2023/07/10 11:28:04;;;;;;;3.60;1.90;;;;;;;;;;13067435;22;20011;-82
2023/07/10 11:33:16;;;;;;;4.22;2.50;;;;;;;;;;13067992;22;20459;-82
2023/07/10 11:38:17;;;;;;;4.80;2.70;;;;;;;;;;13062045;22;20065;-84
2023/07/10 11:43:28;;;;;;;4.28;2.00;;;;;;;;;;13062794;22;20011;-83
2023/07/10 11:48:37;;;;;;;4.43;2.03;;;;;;;;;;13062551;22;20027;-84
2023/07/10 11:53:38;;;;;;;2.70;1.73;;;;;;;;;;13061114;22;20007;-82
2023/07/10 11:58:53;;;;;;;5.28;2.03;;;;;;;;;;13058109;22;19995;-87
2023/07/10 14:51:16;;;;;;;3.40;1.57;;;;;;;;;;13062417;22;20019;-88
